createdAt,value
2019-06-20T00:00:28.238Z,99.90
2019-06-20T00:01:01.348Z,99.90
2019-06-20T00:01:34.462Z,99.90
2019-06-20T00:02:07.586Z,99.90
2019-06-20T00:02:40.315Z,99.90
2019-06-20T00:03:13.898Z,99.90
2019-06-20T00:03:47.008Z,99.90
2019-06-20T00:04:20.135Z,99.90
2019-06-20T00:04:52.952Z,99.90
2019-06-20T00:05:26.055Z,99.90
2019-06-20T00:05:59.180Z,99.90
2019-06-20T00:06:32.275Z,99.90
2019-06-20T00:07:05.084Z,99.90
2019-06-20T00:07:38.395Z,99.90
2019-06-20T00:08:11.677Z,99.90
2019-06-20T00:08:44.783Z,99.90
2019-06-20T00:09:17.827Z,99.90
2019-06-20T00:09:52.498Z,99.90
2019-06-20T00:10:25.843Z,99.90
2019-06-20T00:10:58.571Z,99.90
2019-06-20T00:11:31.680Z,99.90
2019-06-20T00:12:04.785Z,99.90
2019-06-20T00:12:37.895Z,99.90
2019-06-20T00:13:10.623Z,99.90
2019-06-20T00:13:43.732Z,99.90
2019-06-20T00:14:16.844Z,99.90
2019-06-20T00:14:49.958Z,99.90
2019-06-20T00:15:22.705Z,99.90
2019-06-20T00:15:55.828Z,99.90
2019-06-20T00:16:28.967Z,99.90
2019-06-20T00:17:02.061Z,99.90
2019-06-20T00:17:34.782Z,99.90
2019-06-20T00:18:07.893Z,99.90
2019-06-20T00:18:41.007Z,99.90
2019-06-20T00:19:14.125Z,99.90
2019-06-20T00:19:47.073Z,99.90
2019-06-20T00:20:20.266Z,99.90
2019-06-20T00:20:53.406Z,99.90
2019-06-20T00:21:26.529Z,99.90
2019-06-20T00:21:59.287Z,99.90
2019-06-20T00:22:32.362Z,99.90
2019-06-20T00:23:05.470Z,99.90
2019-06-20T00:23:38.716Z,99.90
2019-06-20T00:24:11.447Z,99.90
2019-06-20T00:24:44.555Z,99.90
2019-06-20T00:25:17.666Z,99.90
2019-06-20T00:25:50.782Z,99.90
2019-06-20T00:26:23.525Z,99.90
2019-06-20T00:26:56.657Z,99.90
2019-06-20T00:27:29.762Z,99.90
2019-06-20T00:28:02.882Z,99.90
2019-06-20T00:28:35.604Z,99.90
2019-06-20T00:29:08.714Z,99.90
2019-06-20T00:29:41.811Z,99.90
2019-06-20T00:30:14.954Z,99.90
2019-06-20T00:30:47.669Z,99.90
2019-06-20T00:31:20.753Z,99.90
2019-06-20T00:31:53.890Z,99.90
2019-06-20T00:32:27.015Z,99.90
2019-06-20T00:32:59.942Z,99.90
2019-06-20T00:33:33.059Z,99.90
2019-06-20T00:34:06.167Z,99.90
2019-06-20T00:34:39.279Z,99.90
2019-06-20T00:35:12.008Z,99.90
2019-06-20T00:35:45.118Z,99.90
2019-06-20T00:36:18.439Z,99.90
2019-06-20T00:36:51.618Z,99.90
2019-06-20T00:37:24.431Z,99.90
2019-06-20T00:37:57.679Z,99.90
2019-06-20T00:38:30.791Z,99.90
2019-06-20T00:39:05.372Z,99.90
2019-06-20T00:39:38.101Z,99.90
2019-06-20T00:40:11.215Z,99.90
2019-06-20T00:40:44.328Z,99.90
2019-06-20T00:41:17.652Z,99.90
2019-06-20T00:41:50.383Z,99.90
2019-06-20T00:42:23.491Z,99.90
2019-06-20T00:42:56.635Z,99.90
2019-06-20T00:43:29.770Z,99.90
2019-06-20T00:44:02.515Z,99.90
2019-06-20T00:44:35.802Z,99.90
2019-06-20T00:45:08.980Z,99.90
2019-06-20T00:45:42.088Z,99.90
2019-06-20T00:46:15.593Z,99.90
2019-06-20T00:46:48.816Z,99.90
2019-06-20T00:47:22.005Z,99.90
2019-06-20T00:47:55.111Z,99.90
2019-06-20T00:48:27.861Z,99.90
2019-06-20T00:49:00.984Z,99.90
2019-06-20T00:49:34.091Z,99.90
2019-06-20T00:50:07.676Z,99.90
2019-06-20T00:50:40.649Z,99.90
2019-06-20T00:51:13.931Z,99.90
2019-06-20T00:51:47.046Z,99.90
2019-06-20T00:52:20.727Z,99.90
2019-06-20T00:52:53.667Z,99.90
2019-06-20T00:53:26.950Z,99.90
2019-06-20T00:54:00.078Z,99.90
2019-06-20T00:54:33.221Z,99.90
2019-06-20T00:55:06.803Z,99.90
2019-06-20T00:55:39.911Z,99.90
2019-06-20T00:56:13.150Z,99.90
2019-06-20T00:56:46.268Z,99.90
2019-06-20T00:57:18.995Z,99.90
2019-06-20T00:57:52.107Z,99.90
2019-06-20T00:58:25.293Z,99.90
2019-06-20T00:58:58.355Z,99.90
2019-06-20T00:59:31.252Z,99.90
2019-06-20T01:00:06.087Z,99.90
2019-06-20T01:00:39.199Z,99.90
2019-06-20T01:01:12.313Z,99.90
2019-06-20T01:01:45.037Z,99.90
2019-06-20T01:02:18.161Z,99.90
2019-06-20T01:02:51.254Z,99.90
2019-06-20T01:03:24.365Z,99.90
2019-06-20T01:03:57.226Z,99.90
2019-06-20T01:04:30.341Z,99.90
2019-06-20T01:05:03.647Z,99.90
2019-06-20T01:05:36.889Z,99.90
2019-06-20T01:06:09.635Z,99.90
2019-06-20T01:06:42.917Z,99.90
2019-06-20T01:07:16.026Z,99.90
2019-06-20T01:07:49.275Z,99.90
2019-06-20T01:08:22.032Z,99.90
2019-06-20T01:08:55.146Z,99.90
2019-06-20T01:09:28.277Z,99.90
2019-06-20T01:10:01.512Z,99.90
2019-06-20T01:10:34.485Z,99.90
2019-06-20T01:11:07.605Z,99.90
2019-06-20T01:11:40.715Z,99.90
2019-06-20T01:12:13.827Z,99.90
2019-06-20T01:12:46.555Z,99.90
2019-06-20T01:13:32.576Z,99.90
2019-06-20T01:13:54.409Z,99.90
2019-06-20T01:14:27.339Z,99.90
2019-06-20T01:15:00.451Z,99.90
2019-06-20T01:15:33.567Z,99.90
2019-06-20T01:16:06.711Z,99.90
2019-06-20T01:16:39.445Z,99.90
2019-06-20T01:17:12.553Z,99.90
2019-06-20T01:17:45.701Z,99.90
2019-06-20T01:18:18.875Z,99.90
2019-06-20T01:18:51.595Z,99.90
2019-06-20T01:19:24.707Z,99.90
2019-06-20T01:19:58.390Z,99.90
2019-06-20T01:20:31.726Z,99.90
2019-06-20T01:21:04.454Z,99.90
2019-06-20T01:21:37.607Z,99.90
2019-06-20T01:22:10.756Z,99.90
2019-06-20T01:22:43.866Z,99.90
2019-06-20T01:23:16.660Z,99.90
2019-06-20T01:23:49.780Z,99.90
2019-06-20T01:24:22.907Z,99.90
2019-06-20T01:24:56.016Z,99.90
2019-06-20T01:25:38.426Z,99.90
2019-06-20T01:26:11.540Z,99.90
2019-06-20T01:26:44.698Z,99.90
2019-06-20T01:27:17.834Z,99.90
2019-06-20T01:27:50.579Z,99.90
2019-06-20T01:28:23.751Z,99.90
2019-06-20T01:28:56.862Z,99.90
2019-06-20T01:29:29.979Z,99.90
2019-06-20T01:30:02.703Z,99.90
2019-06-20T01:30:35.815Z,99.90
2019-06-20T01:31:08.927Z,99.90
2019-06-20T01:31:42.079Z,99.90
2019-06-20T01:32:14.869Z,99.90
2019-06-20T01:32:47.994Z,99.90
2019-06-20T01:33:21.142Z,99.90
2019-06-20T01:33:54.251Z,99.90
2019-06-20T01:34:26.977Z,99.90
2019-06-20T01:35:00.091Z,99.90
2019-06-20T01:35:33.231Z,99.90
2019-06-20T01:36:06.309Z,99.90
2019-06-20T01:36:39.342Z,99.90
2019-06-20T01:37:12.443Z,99.90
2019-06-20T01:37:45.556Z,99.90
2019-06-20T01:38:18.696Z,99.90
2019-06-20T01:38:51.439Z,99.90
2019-06-20T01:39:24.547Z,99.90
2019-06-20T01:39:57.679Z,99.90
2019-06-20T01:40:30.775Z,99.90
2019-06-20T01:41:06.197Z,99.90
2019-06-20T01:41:38.347Z,99.90
2019-06-20T01:42:11.459Z,99.90
2019-06-20T01:42:44.187Z,99.90
2019-06-20T01:43:17.295Z,99.90
2019-06-20T01:43:51.211Z,99.90
2019-06-20T01:44:24.593Z,99.90
2019-06-20T01:44:57.616Z,99.90
2019-06-20T01:45:30.729Z,99.90
2019-06-20T01:46:03.845Z,99.90
2019-06-20T01:46:36.950Z,99.90
2019-06-20T01:47:09.675Z,99.90
2019-06-20T01:47:42.785Z,99.90
2019-06-20T01:48:15.899Z,99.90
2019-06-20T01:48:49.025Z,99.90
2019-06-20T01:49:21.771Z,99.90
2019-06-20T01:49:54.917Z,99.90
2019-06-20T01:50:28.020Z,99.90
2019-06-20T01:51:01.123Z,99.90
2019-06-20T01:51:33.911Z,99.90
2019-06-20T01:52:07.173Z,99.90
2019-06-20T01:52:40.283Z,99.90
2019-06-20T01:53:13.564Z,99.90
2019-06-20T01:53:46.315Z,99.90
2019-06-20T01:54:19.426Z,99.90
2019-06-20T01:54:52.553Z,99.90
2019-06-20T01:55:25.753Z,99.90
2019-06-20T01:55:58.719Z,99.90
2019-06-20T01:56:31.839Z,99.90
2019-06-20T01:57:04.935Z,99.90
2019-06-20T01:57:38.062Z,99.90
2019-06-20T01:58:10.776Z,99.90
2019-06-20T01:58:43.895Z,99.90
2019-06-20T01:59:16.995Z,99.90
2019-06-20T01:59:50.115Z,99.90
2019-06-20T02:00:30.635Z,99.90
2019-06-20T02:01:03.760Z,99.90
2019-06-20T02:01:36.868Z,99.90
2019-06-20T02:02:10.023Z,99.90
2019-06-20T02:02:42.726Z,99.90
2019-06-20T02:03:15.982Z,99.90
2019-06-20T02:03:49.093Z,99.90
2019-06-20T02:04:22.196Z,99.90
2019-06-20T02:04:54.923Z,99.90
2019-06-20T02:05:28.031Z,99.90
2019-06-20T02:06:01.158Z,99.90
2019-06-20T02:06:34.286Z,99.90
2019-06-20T02:07:07.018Z,99.90
2019-06-20T02:07:40.123Z,99.90
2019-06-20T02:08:13.240Z,99.90
2019-06-20T02:08:46.534Z,99.90
2019-06-20T02:09:19.297Z,99.90
2019-06-20T02:09:52.416Z,99.90
2019-06-20T02:10:25.517Z,99.90
2019-06-20T02:10:58.700Z,99.90
2019-06-20T02:11:31.441Z,99.90
2019-06-20T02:12:04.634Z,99.90
2019-06-20T02:12:37.743Z,99.90
2019-06-20T02:13:10.851Z,99.90
2019-06-20T02:13:43.583Z,99.90
2019-06-20T02:14:16.693Z,99.90
2019-06-20T02:14:49.806Z,99.90
2019-06-20T02:15:22.922Z,99.90
2019-06-20T02:15:55.898Z,99.90
2019-06-20T02:16:29.180Z,99.90
2019-06-20T02:17:02.318Z,99.90
2019-06-20T02:17:35.453Z,99.90
2019-06-20T02:18:08.299Z,99.90
2019-06-20T02:18:41.416Z,99.90
2019-06-20T02:19:14.526Z,99.90
2019-06-20T02:19:47.643Z,99.90
2019-06-20T02:20:40.370Z,99.90
2019-06-20T02:21:13.479Z,99.90
2019-06-20T02:21:46.595Z,99.90
2019-06-20T02:22:19.754Z,99.90
2019-06-20T02:22:52.529Z,99.90
2019-06-20T02:23:25.639Z,99.90
2019-06-20T02:23:58.922Z,99.90
2019-06-20T02:24:32.030Z,99.90
2019-06-20T02:25:05.791Z,99.90
2019-06-20T02:25:39.076Z,99.90
2019-06-20T02:26:12.412Z,99.90
2019-06-20T02:26:45.560Z,99.90
2019-06-20T02:27:18.498Z,99.90
2019-06-20T02:27:51.627Z,99.90
2019-06-20T02:28:24.747Z,99.90
2019-06-20T02:28:57.867Z,99.90
2019-06-20T02:29:30.596Z,99.90
2019-06-20T02:30:03.708Z,99.90
2019-06-20T02:30:36.818Z,99.90
2019-06-20T02:31:09.939Z,99.90
2019-06-20T02:31:42.730Z,99.90
2019-06-20T02:32:15.847Z,99.90
2019-06-20T02:32:48.953Z,99.90
2019-06-20T02:33:22.108Z,99.90
2019-06-20T02:33:54.841Z,99.90
2019-06-20T02:34:27.954Z,99.90
2019-06-20T02:35:01.056Z,99.90
2019-06-20T02:35:34.171Z,99.90
2019-06-20T02:36:06.901Z,99.90
2019-06-20T02:36:40.008Z,99.90
2019-06-20T02:37:13.112Z,99.90
2019-06-20T02:37:46.222Z,99.90
2019-06-20T02:38:19.023Z,99.90
2019-06-20T02:38:52.294Z,99.90
2019-06-20T02:39:25.423Z,99.90
2019-06-20T02:39:58.633Z,99.90
2019-06-20T02:40:31.360Z,99.90
2019-06-20T02:41:04.551Z,99.90
2019-06-20T02:41:37.664Z,99.90
2019-06-20T02:42:10.762Z,99.90
2019-06-20T02:42:43.496Z,99.90
2019-06-20T02:43:16.609Z,99.90
2019-06-20T02:43:49.715Z,99.90
2019-06-20T02:44:29.855Z,99.90
2019-06-20T02:44:57.235Z,99.90
2019-06-20T02:45:30.338Z,99.90
2019-06-20T02:46:03.452Z,99.90
2019-06-20T02:46:36.768Z,99.90
2019-06-20T02:47:09.528Z,99.90
2019-06-20T02:47:42.639Z,99.90
2019-06-20T02:48:15.749Z,99.90
2019-06-20T02:48:48.861Z,99.90
2019-06-20T02:49:21.623Z,99.90
2019-06-20T02:49:54.770Z,99.90
2019-06-20T02:50:27.896Z,99.90
2019-06-20T02:51:01.673Z,99.90
2019-06-20T02:51:34.648Z,99.90
2019-06-20T02:52:07.755Z,99.90
2019-06-20T02:52:40.863Z,99.90
2019-06-20T02:53:13.975Z,99.90
2019-06-20T02:53:46.703Z,99.90
2019-06-20T02:54:19.815Z,99.90
2019-06-20T02:54:52.927Z,99.90
2019-06-20T02:55:26.066Z,99.90
2019-06-20T02:55:58.898Z,99.90
2019-06-20T02:56:32.014Z,99.90
2019-06-20T02:57:05.130Z,99.90
2019-06-20T02:57:38.238Z,99.90
2019-06-20T02:58:10.966Z,99.90
2019-06-20T02:58:44.080Z,99.90
2019-06-20T02:59:17.187Z,99.90
2019-06-20T02:59:50.295Z,99.90
2019-06-20T03:00:24.651Z,99.90
2019-06-20T03:00:58.383Z,99.90
2019-06-20T03:01:31.490Z,99.90
2019-06-20T03:02:04.595Z,99.90
2019-06-20T03:02:37.323Z,99.90
2019-06-20T03:03:10.437Z,99.90
2019-06-20T03:03:43.541Z,99.90
2019-06-20T03:04:16.652Z,99.90
2019-06-20T03:04:49.374Z,99.90
2019-06-20T03:05:22.484Z,99.90
2019-06-20T03:05:55.659Z,99.90
2019-06-20T03:06:28.787Z,99.90
2019-06-20T03:07:01.767Z,99.90
2019-06-20T03:07:34.874Z,99.90
2019-06-20T03:08:07.989Z,99.90
2019-06-20T03:08:41.093Z,99.90
2019-06-20T03:09:13.886Z,99.90
2019-06-20T03:09:46.990Z,99.90
2019-06-20T03:10:20.111Z,99.90
2019-06-20T03:10:53.210Z,99.90
2019-06-20T03:11:25.935Z,99.90
2019-06-20T03:11:59.070Z,99.90
2019-06-20T03:12:32.200Z,99.90
2019-06-20T03:13:05.319Z,99.90
2019-06-20T03:13:38.035Z,99.90
2019-06-20T03:14:11.146Z,99.90
2019-06-20T03:14:45.657Z,99.90
2019-06-20T03:15:18.637Z,99.90
2019-06-20T03:15:51.740Z,99.90
2019-06-20T03:16:24.849Z,99.90
2019-06-20T03:16:57.962Z,99.90
2019-06-20T03:17:30.747Z,99.90
2019-06-20T03:18:03.876Z,99.90
2019-06-20T03:18:36.982Z,99.90
2019-06-20T03:19:10.100Z,99.90
2019-06-20T03:19:42.832Z,99.90
2019-06-20T03:20:15.951Z,99.90
2019-06-20T03:20:49.196Z,99.90
2019-06-20T03:21:22.302Z,99.90
2019-06-20T03:21:55.136Z,99.90
2019-06-20T03:22:28.243Z,99.90
2019-06-20T03:23:01.378Z,99.90
2019-06-20T03:23:34.503Z,99.90
2019-06-20T03:24:07.267Z,99.90
2019-06-20T03:24:40.407Z,99.90
2019-06-20T03:25:15.059Z,99.90
2019-06-20T03:25:48.163Z,99.90
2019-06-20T03:26:20.898Z,99.90
2019-06-20T03:26:54.007Z,99.90
2019-06-20T03:27:27.115Z,99.90
2019-06-20T03:28:00.231Z,99.90
2019-06-20T03:28:32.983Z,99.90
2019-06-20T03:29:06.104Z,99.90
2019-06-20T03:29:39.219Z,99.90
2019-06-20T03:30:12.327Z,99.90
2019-06-20T03:30:45.059Z,99.90
2019-06-20T03:31:18.163Z,99.90
2019-06-20T03:31:51.271Z,99.90
2019-06-20T03:32:24.390Z,99.90
2019-06-20T03:32:57.116Z,99.90
2019-06-20T03:33:30.265Z,99.90
2019-06-20T03:34:03.387Z,99.90
2019-06-20T03:34:36.527Z,99.90
2019-06-20T03:35:09.243Z,99.90
2019-06-20T03:35:42.544Z,99.90
2019-06-20T03:36:15.659Z,99.90
2019-06-20T03:36:48.896Z,99.90
2019-06-20T03:37:21.622Z,99.90
2019-06-20T03:37:54.722Z,99.90
2019-06-20T03:38:27.838Z,99.90
2019-06-20T03:39:00.942Z,99.90
2019-06-20T03:39:33.690Z,99.90
2019-06-20T03:40:06.815Z,99.90
2019-06-20T03:40:39.939Z,99.90
2019-06-20T03:41:13.043Z,99.90
2019-06-20T03:41:45.774Z,99.90
2019-06-20T03:42:18.887Z,99.90
2019-06-20T03:42:52.001Z,99.90
2019-06-20T03:43:25.104Z,99.90
2019-06-20T03:43:59.077Z,99.90
2019-06-20T03:44:32.464Z,99.90
2019-06-20T03:45:06.370Z,99.90
2019-06-20T03:45:39.123Z,99.90
2019-06-20T03:46:12.231Z,99.90
2019-06-20T03:46:45.341Z,99.90
2019-06-20T03:47:18.463Z,99.90
2019-06-20T03:47:51.177Z,99.90
2019-06-20T03:48:24.295Z,99.90
2019-06-20T03:48:57.582Z,99.90
2019-06-20T03:49:30.703Z,99.90
2019-06-20T03:50:05.367Z,99.90
2019-06-20T03:50:38.498Z,99.90
2019-06-20T03:51:11.626Z,99.90
2019-06-20T03:51:44.736Z,99.90
2019-06-20T03:52:17.459Z,99.90
2019-06-20T03:52:51.833Z,99.90
2019-06-20T03:53:24.942Z,99.90
2019-06-20T03:53:58.052Z,99.90
2019-06-20T03:54:30.841Z,99.90
2019-06-20T03:55:04.809Z,99.90
2019-06-20T03:55:37.924Z,99.90
2019-06-20T03:56:11.063Z,99.90
2019-06-20T03:56:43.860Z,99.90
2019-06-20T03:57:17.115Z,99.90
2019-06-20T03:57:50.224Z,99.90
2019-06-20T03:58:23.334Z,99.90
2019-06-20T03:58:56.070Z,99.90
2019-06-20T03:59:29.172Z,99.90
2019-06-20T04:00:02.689Z,99.90
2019-06-20T04:00:36.189Z,99.90
2019-06-20T04:01:08.918Z,99.90
2019-06-20T04:01:42.059Z,99.90
2019-06-20T04:02:15.168Z,99.90
2019-06-20T04:02:48.279Z,99.90
2019-06-20T04:03:21.005Z,99.90
2019-06-20T04:03:54.116Z,99.90
2019-06-20T04:04:27.221Z,99.90
2019-06-20T04:05:00.552Z,99.90
2019-06-20T04:05:33.453Z,99.90
2019-06-20T04:06:06.582Z,99.90
2019-06-20T04:06:39.676Z,99.90
2019-06-20T04:07:12.804Z,99.90
2019-06-20T04:07:45.569Z,99.90
2019-06-20T04:08:18.662Z,99.90
2019-06-20T04:08:51.773Z,99.90
2019-06-20T04:09:24.883Z,99.90
2019-06-20T04:09:57.619Z,99.90
2019-06-20T04:10:30.727Z,99.90
2019-06-20T04:11:03.839Z,99.90
2019-06-20T04:11:36.949Z,99.90
2019-06-20T04:12:09.674Z,99.90
2019-06-20T04:12:43.028Z,99.90
2019-06-20T04:13:16.241Z,99.90
2019-06-20T04:13:49.375Z,99.90
2019-06-20T04:14:22.154Z,99.90
2019-06-20T04:14:55.271Z,99.90
2019-06-20T04:15:28.383Z,99.90
2019-06-20T04:16:01.486Z,99.90
2019-06-20T04:16:34.531Z,99.90
2019-06-20T04:17:07.643Z,99.90
2019-06-20T04:17:41.004Z,99.90
2019-06-20T04:18:14.093Z,99.90
2019-06-20T04:18:46.838Z,99.90
2019-06-20T04:19:19.946Z,99.90
2019-06-20T04:19:53.054Z,99.90
2019-06-20T04:20:26.162Z,99.90
2019-06-20T04:20:58.890Z,99.90
2019-06-20T04:21:32.000Z,99.90
2019-06-20T04:22:05.110Z,99.90
2019-06-20T04:22:38.249Z,99.90
2019-06-20T04:23:10.952Z,99.90
2019-06-20T04:23:44.079Z,99.90
2019-06-20T04:24:17.202Z,99.90
2019-06-20T04:24:50.470Z,99.90
2019-06-20T04:25:23.284Z,99.90
2019-06-20T04:25:56.375Z,99.90
2019-06-20T04:26:29.483Z,99.90
2019-06-20T04:27:02.595Z,99.90
2019-06-20T04:27:35.311Z,99.90
2019-06-20T04:28:08.615Z,99.90
2019-06-20T04:28:41.719Z,99.90
2019-06-20T04:29:14.845Z,99.90
2019-06-20T04:29:47.595Z,99.90
2019-06-20T04:30:20.733Z,99.90
2019-06-20T04:30:53.820Z,99.90
2019-06-20T04:31:27.062Z,99.90
2019-06-20T04:31:59.793Z,99.90
2019-06-20T04:32:32.927Z,99.90
2019-06-20T04:33:06.044Z,99.90
2019-06-20T04:33:39.151Z,99.90
2019-06-20T04:34:11.882Z,99.90
2019-06-20T04:34:45.019Z,99.90
2019-06-20T04:35:18.141Z,99.90
2019-06-20T04:35:51.251Z,99.90
2019-06-20T04:36:24.018Z,99.90
2019-06-20T04:36:57.137Z,99.90
2019-06-20T04:37:30.257Z,99.90
2019-06-20T04:38:03.363Z,99.90
2019-06-20T04:38:36.163Z,99.90
2019-06-20T04:39:18.718Z,99.90
2019-06-20T04:39:44.164Z,99.90
2019-06-20T04:40:17.294Z,99.90
2019-06-20T04:40:50.044Z,99.90
2019-06-20T04:41:23.151Z,99.90
2019-06-20T04:41:56.271Z,99.90
2019-06-20T04:42:29.386Z,99.90
2019-06-20T04:43:02.159Z,99.90
2019-06-20T04:43:35.451Z,99.90
2019-06-20T04:44:08.629Z,99.90
2019-06-20T04:44:41.746Z,99.90
2019-06-20T04:45:31.422Z,99.90
2019-06-20T04:46:00.973Z,99.90
2019-06-20T04:46:44.370Z,99.90
2019-06-20T04:47:17.174Z,99.90
2019-06-20T04:47:50.274Z,99.90
2019-06-20T04:48:23.389Z,99.90
2019-06-20T04:48:56.494Z,99.90
2019-06-20T04:49:29.223Z,99.90
2019-06-20T04:50:02.338Z,99.90
2019-06-20T04:50:35.510Z,99.90
2019-06-20T04:51:08.625Z,99.90
2019-06-20T04:51:41.984Z,99.90
2019-06-20T04:52:15.112Z,99.90
2019-06-20T04:52:48.219Z,99.90
2019-06-20T04:53:21.337Z,99.90
2019-06-20T04:53:54.350Z,99.90
2019-06-20T04:54:27.459Z,99.90
2019-06-20T04:55:00.579Z,99.90
2019-06-20T04:55:33.727Z,99.90
2019-06-20T04:56:06.451Z,99.90
2019-06-20T04:56:39.740Z,99.90
2019-06-20T04:57:12.875Z,99.90
2019-06-20T04:57:46.006Z,99.90
2019-06-20T04:58:18.732Z,99.90
2019-06-20T04:58:51.851Z,99.90
2019-06-20T04:59:25.020Z,99.90
2019-06-20T05:00:03.763Z,99.90
2019-06-20T05:00:40.784Z,99.90
2019-06-20T05:01:16.213Z,99.90
2019-06-20T05:01:50.013Z,99.90
2019-06-20T05:02:25.583Z,99.90
2019-06-20T05:03:00.296Z,99.90
2019-06-20T05:03:34.366Z,99.90
2019-06-20T05:04:07.676Z,99.90
2019-06-20T05:04:40.817Z,99.90
2019-06-20T05:05:13.993Z,99.90
2019-06-20T05:05:46.675Z,99.90
2019-06-20T05:06:19.786Z,99.90
2019-06-20T05:06:54.520Z,99.90
2019-06-20T05:07:27.250Z,99.90
2019-06-20T05:08:00.520Z,99.90
2019-06-20T05:08:33.646Z,99.90
2019-06-20T05:09:07.625Z,99.70
2019-06-20T05:09:40.351Z,99.60
2019-06-20T05:10:13.459Z,99.60
2019-06-20T05:10:46.697Z,99.50
2019-06-20T05:11:19.881Z,99.40
2019-06-20T05:11:52.638Z,99.30
2019-06-20T05:12:25.775Z,99.30
2019-06-20T05:12:58.866Z,99.30
2019-06-20T05:13:32.006Z,99.00
2019-06-20T05:14:04.748Z,99.00
2019-06-20T05:14:37.864Z,99.10
2019-06-20T05:15:10.965Z,98.90
2019-06-20T05:15:52.773Z,98.70
2019-06-20T05:16:18.458Z,98.70
2019-06-20T05:16:51.661Z,98.60
2019-06-20T05:17:24.771Z,98.60
2019-06-20T05:17:57.886Z,98.60
2019-06-20T05:18:30.606Z,98.60
2019-06-20T05:19:03.743Z,98.60
2019-06-20T05:19:36.867Z,98.60
2019-06-20T05:20:09.989Z,98.50
2019-06-20T05:20:42.873Z,98.40
2019-06-20T05:21:15.983Z,98.40
2019-06-20T05:21:49.098Z,98.40
2019-06-20T05:22:22.224Z,98.20
2019-06-20T05:22:55.013Z,98.20
2019-06-20T05:23:28.108Z,98.00
2019-06-20T05:24:01.280Z,97.90
2019-06-20T05:24:34.413Z,97.80
2019-06-20T05:25:07.198Z,97.90
2019-06-20T05:25:40.354Z,97.90
2019-06-20T05:26:13.458Z,97.90
2019-06-20T05:26:46.570Z,97.90
2019-06-20T05:27:19.322Z,98.00
2019-06-20T05:27:52.444Z,97.90
2019-06-20T05:28:25.553Z,97.90
2019-06-20T05:28:58.663Z,97.90
2019-06-20T05:29:31.577Z,97.90
2019-06-20T05:30:06.318Z,97.70
2019-06-20T05:30:39.455Z,97.70
2019-06-20T05:31:12.187Z,97.70
2019-06-20T05:31:45.307Z,97.70
2019-06-20T05:32:18.493Z,97.70
2019-06-20T05:32:51.598Z,97.70
2019-06-20T05:33:24.329Z,97.70
2019-06-20T05:33:57.440Z,97.60
2019-06-20T05:34:30.551Z,97.40
2019-06-20T05:35:03.672Z,97.20
2019-06-20T05:35:36.433Z,97.20
2019-06-20T05:36:09.565Z,97.20
2019-06-20T05:36:42.672Z,97.30
2019-06-20T05:37:15.785Z,97.10
2019-06-20T05:37:48.512Z,97.00
2019-06-20T05:38:21.617Z,97.00
2019-06-20T05:38:54.734Z,96.90
2019-06-20T05:39:27.842Z,96.90
2019-06-20T05:40:00.724Z,96.70
2019-06-20T05:40:37.095Z,96.70
2019-06-20T05:41:08.788Z,96.40
2019-06-20T05:41:41.530Z,96.20
2019-06-20T05:42:14.817Z,96.00
2019-06-20T05:42:48.177Z,95.90
2019-06-20T05:43:21.285Z,95.90
2019-06-20T05:43:54.055Z,95.90
2019-06-20T05:44:27.173Z,95.80
2019-06-20T05:45:00.291Z,95.80
2019-06-20T05:45:33.391Z,95.80
2019-06-20T05:46:10.646Z,95.60
2019-06-20T05:46:41.108Z,95.60
2019-06-20T05:47:14.248Z,95.60
2019-06-20T05:47:47.089Z,95.60
2019-06-20T05:48:20.266Z,95.50
2019-06-20T05:48:53.376Z,95.60
2019-06-20T05:49:26.558Z,95.60
2019-06-20T05:49:59.287Z,95.60
2019-06-20T05:50:32.438Z,95.70
2019-06-20T05:51:06.294Z,95.70
2019-06-20T05:51:39.931Z,95.70
2019-06-20T05:52:12.843Z,95.60
2019-06-20T05:52:46.009Z,95.50
2019-06-20T05:53:19.096Z,95.40
2019-06-20T05:53:52.197Z,95.40
2019-06-20T05:54:24.922Z,95.40
2019-06-20T05:54:58.027Z,95.40
2019-06-20T05:55:31.213Z,95.40
2019-06-20T05:56:04.531Z,95.40
2019-06-20T05:56:37.277Z,95.40
2019-06-20T05:57:10.567Z,95.40
2019-06-20T05:57:43.724Z,95.30
2019-06-20T05:58:16.859Z,95.40
2019-06-20T05:58:50.520Z,95.50
2019-06-20T05:59:23.907Z,95.50
2019-06-20T05:59:57.020Z,95.50
2019-06-20T06:00:30.129Z,95.50
2019-06-20T06:01:02.856Z,95.30
2019-06-20T06:01:35.971Z,95.10
2019-06-20T06:02:09.078Z,95.10
2019-06-20T06:02:42.191Z,95.20
2019-06-20T06:03:16.028Z,95.20
2019-06-20T06:03:49.340Z,95.20
2019-06-20T06:04:22.455Z,95.00
2019-06-20T06:04:55.188Z,94.90
2019-06-20T06:05:28.304Z,94.80
2019-06-20T06:06:01.413Z,94.70
2019-06-20T06:06:34.522Z,94.80
2019-06-20T06:07:07.396Z,94.90
2019-06-20T06:07:40.576Z,94.90
2019-06-20T06:08:13.827Z,95.00
2019-06-20T06:08:46.959Z,95.10
2019-06-20T06:09:19.762Z,95.20
2019-06-20T06:09:53.018Z,95.20
2019-06-20T06:10:26.132Z,95.20
2019-06-20T06:10:59.410Z,95.30
2019-06-20T06:11:32.139Z,95.30
2019-06-20T06:12:05.247Z,95.30
2019-06-20T06:12:38.401Z,95.20
2019-06-20T06:13:11.508Z,95.20
2019-06-20T06:13:44.230Z,95.20
2019-06-20T06:14:17.368Z,95.20
2019-06-20T06:14:51.039Z,95.20
2019-06-20T06:15:24.889Z,95.20
2019-06-20T06:15:57.962Z,95.30
2019-06-20T06:16:31.038Z,95.20
2019-06-20T06:17:04.144Z,95.10
2019-06-20T06:17:37.252Z,95.10
2019-06-20T06:18:10.031Z,95.10
2019-06-20T06:18:43.289Z,95.00
2019-06-20T06:19:16.395Z,94.90
2019-06-20T06:19:49.520Z,94.80
2019-06-20T06:20:22.341Z,94.90
2019-06-20T06:20:55.453Z,95.00
2019-06-20T06:21:28.566Z,95.00
2019-06-20T06:22:01.744Z,95.10
2019-06-20T06:22:34.549Z,95.20
2019-06-20T06:23:07.790Z,95.20
2019-06-20T06:23:40.974Z,95.30
2019-06-20T06:24:14.086Z,95.30
2019-06-20T06:24:46.939Z,95.30
2019-06-20T06:25:20.079Z,95.30
2019-06-20T06:25:53.201Z,95.30
2019-06-20T06:26:26.306Z,95.30
2019-06-20T06:27:00.043Z,95.30
2019-06-20T06:27:33.243Z,95.30
2019-06-20T06:28:06.380Z,95.30
2019-06-20T06:28:39.111Z,95.30
2019-06-20T06:29:12.224Z,95.60
2019-06-20T06:29:45.356Z,95.30
2019-06-20T06:30:18.618Z,95.30
2019-06-20T06:30:51.441Z,95.30
2019-06-20T06:31:24.616Z,95.30
2019-06-20T06:31:57.727Z,95.30
2019-06-20T06:32:39.908Z,95.20
2019-06-20T06:33:05.200Z,95.20
2019-06-20T06:33:38.475Z,94.90
2019-06-20T06:34:11.835Z,94.70
2019-06-20T06:34:45.248Z,94.60
2019-06-20T06:35:18.212Z,94.70
2019-06-20T06:35:51.543Z,94.70
2019-06-20T06:36:25.311Z,94.80
2019-06-20T06:36:58.504Z,94.80
2019-06-20T06:37:31.870Z,94.80
2019-06-20T06:38:05.389Z,94.80
2019-06-20T06:38:38.879Z,94.80
2019-06-20T06:39:11.651Z,94.70
2019-06-20T06:39:44.767Z,94.60
2019-06-20T06:40:18.207Z,94.70
2019-06-20T06:40:51.327Z,94.80
2019-06-20T06:41:24.128Z,94.70
2019-06-20T06:41:57.262Z,94.50
2019-06-20T06:42:30.390Z,94.40
2019-06-20T06:43:03.500Z,94.30
2019-06-20T06:43:41.731Z,94.10
2019-06-20T06:44:11.025Z,94.20
2019-06-20T06:44:44.134Z,94.30
2019-06-20T06:45:17.250Z,94.60
2019-06-20T06:45:50.167Z,94.10
2019-06-20T06:46:23.275Z,94.00
2019-06-20T06:46:59.638Z,94.00
2019-06-20T06:47:31.302Z,94.00
2019-06-20T06:48:04.128Z,94.00
2019-06-20T06:48:37.244Z,94.00
2019-06-20T06:49:10.354Z,94.00
2019-06-20T06:49:43.460Z,94.00
2019-06-20T06:50:16.529Z,94.00
2019-06-20T06:50:49.578Z,94.10
2019-06-20T06:51:22.687Z,94.10
2019-06-20T06:51:55.806Z,93.90
2019-06-20T06:52:28.572Z,93.90
2019-06-20T06:53:01.843Z,93.70
2019-06-20T06:53:34.984Z,93.60
2019-06-20T06:54:08.093Z,93.50
2019-06-20T06:54:40.811Z,93.50
2019-06-20T06:55:15.205Z,93.50
2019-06-20T06:55:48.302Z,93.50
2019-06-20T06:56:21.410Z,93.40
2019-06-20T06:56:54.337Z,93.30
2019-06-20T06:57:27.449Z,93.40
2019-06-20T06:58:00.832Z,93.20
2019-06-20T06:58:34.053Z,93.00
2019-06-20T06:59:06.808Z,93.00
2019-06-20T06:59:39.920Z,93.00
2019-06-20T07:00:14.800Z,93.10
2019-06-20T07:00:47.773Z,93.00
2019-06-20T07:01:20.889Z,93.00
2019-06-20T07:01:54.000Z,92.90
2019-06-20T07:02:27.111Z,92.90
2019-06-20T07:02:59.879Z,93.00
2019-06-20T07:03:32.995Z,93.00
2019-06-20T07:04:06.124Z,92.90
2019-06-20T07:04:39.331Z,93.00
2019-06-20T07:05:12.066Z,93.00
2019-06-20T07:05:45.287Z,93.10
2019-06-20T07:06:18.369Z,93.20
2019-06-20T07:06:51.490Z,93.00
2019-06-20T07:07:24.407Z,93.00
2019-06-20T07:07:57.663Z,93.00